createdAt,value
2019-05-17T00:00:17.082Z,99.90
2019-05-17T00:01:17.047Z,99.59
2019-05-17T00:02:17.583Z,99.79
2019-05-17T00:03:17.194Z,99.59
2019-05-17T00:04:17.010Z,99.59
2019-05-17T00:05:17.717Z,99.59
2019-05-17T00:06:17.045Z,99.63
2019-05-17T00:07:17.000Z,99.59
2019-05-17T00:08:29.843Z,99.63
2019-05-17T00:09:17.958Z,99.49
2019-05-17T00:10:17.501Z,99.63
2019-05-17T00:11:27.297Z,99.84
2019-05-17T00:12:16.933Z,99.79
2019-05-17T00:13:17.447Z,99.54
2019-05-17T00:14:16.968Z,99.63
2019-05-17T00:15:17.222Z,99.49
2019-05-17T00:16:17.479Z,99.59
2019-05-17T00:17:17.429Z,99.84
2019-05-17T00:18:17.259Z,99.63
2019-05-17T00:19:17.114Z,99.49
2019-05-17T00:20:17.553Z,99.49
2019-05-17T00:21:17.098Z,99.74
2019-05-17T00:22:16.923Z,99.84
2019-05-17T00:23:17.362Z,99.43
2019-05-17T00:24:18.355Z,99.59
2019-05-17T00:25:16.856Z,99.54
2019-05-17T00:26:16.773Z,99.63
2019-05-17T00:27:17.251Z,99.74
2019-05-17T00:28:16.788Z,99.63
2019-05-17T00:29:17.275Z,99.43
2019-05-17T00:30:17.509Z,99.95
2019-05-17T00:31:17.155Z,99.63
2019-05-17T00:32:17.208Z,99.68
2019-05-17T00:33:17.046Z,99.84
2019-05-17T00:34:16.930Z,99.68
2019-05-17T00:35:17.891Z,99.68
2019-05-17T00:36:17.806Z,99.48
2019-05-17T00:37:17.344Z,99.58
2019-05-17T00:38:17.027Z,99.68
2019-05-17T00:39:16.882Z,99.48
2019-05-17T00:40:16.919Z,99.63
2019-05-17T00:41:17.680Z,99.89
2019-05-17T00:42:17.145Z,99.99
2019-05-17T00:43:17.027Z,99.99
2019-05-17T00:44:16.879Z,99.95
2019-05-17T00:45:26.719Z,99.99
2019-05-17T00:46:17.280Z,99.63
2019-05-17T00:47:17.131Z,99.84
2019-05-17T00:48:17.171Z,99.99
2019-05-17T00:49:17.142Z,99.84
2019-05-17T00:50:17.202Z,99.99
2019-05-17T00:51:16.812Z,99.99
2019-05-17T00:52:16.849Z,99.84
2019-05-17T00:53:16.527Z,99.74
2019-05-17T00:54:17.435Z,99.95
2019-05-17T00:55:17.482Z,99.84
2019-05-17T00:56:17.181Z,99.95
2019-05-17T00:57:16.680Z,99.99
2019-05-17T00:58:17.317Z,99.99
2019-05-17T00:59:17.060Z,99.84
2019-05-17T01:00:17.022Z,99.99
2019-05-17T01:01:16.544Z,99.63
2019-05-17T01:02:16.442Z,99.74
2019-05-17T01:03:16.399Z,99.84
2019-05-17T01:05:17.432Z,99.74
2019-05-17T01:06:16.961Z,99.84
2019-05-17T01:07:17.716Z,99.95
2019-05-17T01:09:17.494Z,99.99
2019-05-17T01:10:16.747Z,99.99
2019-05-17T01:11:16.578Z,99.99
2019-05-17T01:12:16.554Z,99.99
2019-05-17T01:13:17.290Z,99.99
2019-05-17T01:14:17.575Z,99.99
2019-05-17T01:15:16.842Z,99.99
2019-05-17T01:16:16.626Z,99.99
2019-05-17T01:17:16.632Z,99.99
2019-05-17T01:18:16.397Z,99.99
2019-05-17T01:19:16.541Z,99.99
2019-05-17T01:20:17.397Z,99.99
2019-05-17T01:21:16.906Z,99.99
2019-05-17T01:22:16.864Z,99.99
2019-05-17T01:23:16.648Z,99.99
2019-05-17T01:24:17.348Z,99.99
2019-05-17T01:25:17.113Z,99.99
2019-05-17T01:26:18.272Z,99.99
2019-05-17T01:27:17.276Z,99.99
2019-05-17T01:28:16.477Z,99.99
2019-05-17T01:29:17.498Z,99.99
2019-05-17T01:30:17.551Z,99.99
2019-05-17T01:31:17.258Z,99.99
2019-05-17T01:32:17.230Z,99.99
2019-05-17T01:33:17.098Z,99.99
2019-05-17T01:34:16.665Z,99.99
2019-05-17T01:35:16.767Z,99.99
2019-05-17T01:36:17.398Z,99.89
2019-05-17T01:37:17.182Z,99.99
2019-05-17T01:38:17.717Z,99.99
2019-05-17T01:39:21.035Z,99.99
2019-05-17T01:40:17.594Z,99.99
2019-05-17T01:41:17.339Z,99.99
2019-05-17T01:42:17.192Z,99.99
2019-05-17T01:43:16.664Z,99.99
2019-05-17T01:44:23.250Z,99.99
2019-05-17T01:45:16.668Z,99.99
2019-05-17T01:46:17.188Z,99.99
2019-05-17T01:47:16.672Z,99.99
2019-05-17T01:48:16.412Z,99.99
2019-05-17T01:49:16.445Z,99.99
2019-05-17T01:50:17.492Z,99.99
2019-05-17T01:51:16.894Z,99.99
2019-05-17T01:52:16.767Z,99.99
2019-05-17T01:53:16.601Z,99.99
2019-05-17T01:54:17.560Z,99.99
2019-05-17T01:55:17.416Z,99.99
2019-05-17T01:56:16.933Z,99.99
2019-05-17T01:57:16.861Z,99.99
2019-05-17T01:58:16.406Z,99.99
2019-05-17T01:59:17.273Z,99.99
2019-05-17T02:00:17.589Z,99.99
2019-05-17T02:01:16.974Z,99.99
2019-05-17T02:02:16.432Z,99.99
2019-05-17T02:03:17.372Z,99.99
2019-05-17T02:04:17.370Z,99.99
2019-05-17T02:05:17.322Z,99.99
2019-05-17T02:06:16.577Z,99.99
2019-05-17T02:07:17.280Z,99.99
2019-05-17T02:08:17.066Z,99.99
2019-05-17T02:09:32.317Z,99.99
2019-05-17T02:10:16.992Z,99.99
2019-05-17T02:11:18.457Z,99.99
2019-05-17T02:12:17.306Z,99.99
2019-05-17T02:13:16.430Z,99.99
2019-05-17T02:14:16.524Z,99.99
2019-05-17T02:15:16.430Z,99.99
2019-05-17T02:16:16.532Z,99.99
2019-05-17T02:17:17.442Z,99.99
2019-05-17T02:18:17.362Z,99.99
2019-05-17T02:19:17.456Z,99.99
2019-05-17T02:20:17.091Z,99.99
2019-05-17T02:21:16.885Z,99.99
2019-05-17T02:22:16.704Z,99.99
2019-05-17T02:23:17.390Z,99.99
2019-05-17T02:24:16.940Z,99.99
2019-05-17T02:25:16.692Z,99.99
2019-05-17T02:26:17.354Z,99.99
2019-05-17T02:27:15.467Z,99.99
2019-05-17T02:28:15.459Z,99.99
2019-05-17T02:29:15.431Z,99.99
2019-05-17T02:30:15.455Z,99.99
2019-05-17T02:31:15.443Z,99.99
2019-05-17T02:32:15.407Z,99.99
2019-05-17T02:33:15.401Z,99.99
2019-05-17T02:34:15.381Z,99.99
2019-05-17T02:35:15.385Z,99.99
2019-05-17T02:36:15.393Z,99.99
2019-05-17T02:37:15.353Z,99.99
2019-05-17T02:38:15.345Z,99.99
2019-05-17T02:39:15.349Z,99.99
2019-05-17T02:40:15.628Z,99.95
2019-05-17T02:41:15.317Z,99.99
2019-05-17T02:42:15.324Z,99.99
2019-05-17T02:43:15.277Z,99.99
2019-05-17T02:44:15.274Z,99.99
2019-05-17T02:45:15.275Z,99.99
2019-05-17T02:46:15.280Z,99.99
2019-05-17T02:47:15.241Z,99.99
2019-05-17T02:48:15.227Z,99.99
2019-05-17T02:49:15.220Z,99.99
2019-05-17T02:50:15.207Z,99.99
2019-05-17T02:51:15.211Z,99.99
2019-05-17T02:52:15.183Z,99.99
2019-05-17T02:53:15.185Z,99.99
2019-05-17T02:54:15.162Z,99.99
2019-05-17T02:55:15.153Z,99.99
2019-05-17T02:56:15.178Z,99.99
2019-05-17T02:57:15.132Z,99.99
2019-05-17T02:58:15.128Z,99.99
2019-05-17T02:59:15.106Z,99.99
2019-05-17T03:00:15.117Z,99.99
2019-05-17T03:01:15.101Z,99.99
2019-05-17T03:02:15.083Z,99.99
2019-05-17T03:03:15.067Z,99.99
2019-05-17T03:04:15.060Z,99.99
2019-05-17T03:05:15.049Z,99.99
2019-05-17T03:06:15.067Z,99.99
2019-05-17T03:07:15.018Z,99.99
2019-05-17T03:08:15.025Z,99.99
2019-05-17T03:09:15.000Z,99.99
2019-05-17T03:10:23.922Z,99.99
2019-05-17T03:11:16.006Z,99.99
2019-05-17T03:12:15.017Z,99.95
2019-05-17T03:13:17.923Z,99.74
2019-05-17T03:14:14.944Z,99.74
2019-05-17T03:15:14.979Z,99.84
2019-05-17T03:16:15.098Z,99.95
2019-05-17T03:17:14.940Z,99.99
2019-05-17T03:18:14.896Z,99.99
2019-05-17T03:19:14.892Z,99.99
2019-05-17T03:20:14.911Z,99.84
2019-05-17T03:21:14.877Z,99.63
2019-05-17T03:22:14.914Z,99.84
2019-05-17T03:23:14.858Z,99.74
2019-05-17T03:24:14.831Z,99.74
2019-05-17T03:25:14.840Z,99.84
2019-05-17T03:26:14.817Z,99.38
2019-05-17T03:27:14.824Z,99.74
2019-05-17T03:28:14.794Z,99.63
2019-05-17T03:29:14.786Z,99.84
2019-05-17T03:30:18.363Z,99.63
2019-05-17T03:31:16.868Z,99.84
2019-05-17T03:32:17.196Z,99.95
2019-05-17T03:33:16.499Z,99.99
2019-05-17T03:34:16.710Z,99.49
2019-05-17T03:35:17.448Z,99.33
2019-05-17T03:36:16.860Z,99.54
2019-05-17T03:37:15.994Z,99.63
2019-05-17T03:38:14.688Z,99.63
2019-05-17T03:39:14.668Z,99.38
2019-05-17T03:40:30.603Z,99.54
2019-05-17T03:41:23.183Z,99.43
2019-05-17T03:42:15.650Z,99.12
2019-05-17T03:43:14.661Z,99.38
2019-05-17T03:44:14.631Z,99.18
2019-05-17T03:45:14.658Z,99.18
2019-05-17T03:46:14.593Z,99.08
2019-05-17T03:47:14.586Z,99.02
2019-05-17T03:48:14.632Z,98.92
2019-05-17T03:49:14.581Z,98.61
2019-05-17T03:50:14.680Z,98.67
2019-05-17T03:51:14.564Z,98.77
2019-05-17T03:52:14.535Z,98.35
2019-05-17T03:53:14.545Z,98.61
2019-05-17T03:54:14.512Z,98.61
2019-05-17T03:55:14.497Z,98.71
2019-05-17T03:56:14.491Z,98.30
2019-05-17T03:57:14.474Z,98.25
2019-05-17T03:58:14.499Z,98.55
2019-05-17T03:59:14.458Z,98.55
2019-05-17T04:00:14.455Z,98.45
2019-05-17T04:01:14.476Z,98.66
2019-05-17T04:02:14.417Z,98.55
2019-05-17T04:03:14.474Z,98.35
2019-05-17T04:04:14.397Z,98.41
2019-05-17T04:05:14.403Z,98.45
2019-05-17T04:06:14.393Z,98.55
2019-05-17T04:07:14.375Z,98.51
2019-05-17T04:08:14.355Z,98.66
2019-05-17T04:09:14.377Z,98.45
2019-05-17T04:10:15.300Z,98.41
2019-05-17T04:11:26.013Z,98.30
2019-05-17T04:12:15.307Z,98.51
2019-05-17T04:13:14.302Z,98.41
2019-05-17T04:14:14.308Z,98.71
2019-05-17T04:15:14.288Z,98.41
2019-05-17T04:16:14.477Z,98.30
2019-05-17T04:17:14.260Z,98.82
2019-05-17T04:18:14.254Z,97.99
2019-05-17T04:19:14.278Z,97.99
2019-05-17T04:20:14.433Z,97.89
2019-05-17T04:21:14.249Z,98.10
2019-05-17T04:22:14.233Z,98.10
2019-05-17T04:23:14.207Z,97.89
2019-05-17T04:24:14.179Z,97.74
2019-05-17T04:25:14.465Z,97.74
2019-05-17T04:26:14.163Z,97.54
2019-05-17T04:27:14.190Z,97.13
2019-05-17T04:28:14.158Z,97.44
2019-05-17T04:29:14.144Z,96.82
2019-05-17T04:30:14.168Z,97.33
2019-05-17T04:31:14.111Z,97.23
2019-05-17T04:32:14.114Z,97.13
2019-05-17T04:33:14.097Z,97.23
2019-05-17T04:34:14.078Z,97.23
2019-05-17T04:35:14.103Z,97.23
2019-05-17T04:36:14.091Z,96.67
2019-05-17T04:37:14.040Z,96.57
2019-05-17T04:38:14.034Z,96.57
2019-05-17T04:39:14.017Z,96.26
2019-05-17T04:40:14.837Z,96.37
2019-05-17T04:41:14.029Z,96.26
2019-05-17T04:42:13.987Z,96.26
2019-05-17T04:43:13.976Z,96.67
2019-05-17T04:44:13.961Z,96.26
2019-05-17T04:45:13.989Z,96.37
2019-05-17T04:46:13.938Z,96.47
2019-05-17T04:47:13.962Z,96.00
2019-05-17T04:48:13.919Z,96.67
2019-05-17T04:49:14.140Z,96.57
2019-05-17T04:50:14.257Z,96.51
2019-05-17T04:51:13.895Z,95.75
2019-05-17T04:52:14.079Z,96.16
2019-05-17T04:53:23.344Z,96.00
2019-05-17T04:54:14.176Z,96.16
2019-05-17T04:55:14.153Z,95.95
2019-05-17T04:56:14.339Z,95.65
2019-05-17T04:57:13.850Z,95.69
2019-05-17T04:58:23.530Z,95.90
2019-05-17T04:59:14.256Z,95.54
2019-05-17T05:00:22.655Z,95.95
2019-05-17T05:01:13.796Z,95.75
2019-05-17T05:02:23.537Z,95.75
2019-05-17T05:03:13.768Z,95.86
2019-05-17T05:04:22.786Z,95.75
2019-05-17T05:05:14.153Z,95.81
2019-05-17T05:06:13.726Z,95.40
2019-05-17T05:07:14.034Z,95.70
2019-05-17T05:08:22.570Z,95.20
2019-05-17T05:09:13.701Z,95.15
2019-05-17T05:10:14.364Z,94.95
2019-05-17T05:11:13.676Z,95.05
2019-05-17T05:12:13.733Z,95.15
2019-05-17T05:13:13.671Z,94.84
2019-05-17T05:14:13.642Z,94.95
2019-05-17T05:15:13.635Z,94.90
2019-05-17T05:16:13.760Z,95.10
2019-05-17T05:17:13.604Z,94.59
2019-05-17T05:18:13.891Z,94.18
2019-05-17T05:19:13.591Z,93.98
2019-05-17T05:20:13.796Z,93.98
2019-05-17T05:21:13.570Z,93.77
2019-05-17T05:22:17.424Z,93.88
2019-05-17T05:23:13.711Z,93.77
2019-05-17T05:24:13.537Z,93.84
2019-05-17T05:25:13.521Z,93.57
2019-05-17T05:26:13.514Z,93.52
2019-05-17T05:27:13.499Z,93.52
2019-05-17T05:28:13.536Z,93.43
2019-05-17T05:29:13.470Z,93.93
2019-05-17T05:30:13.473Z,93.32
2019-05-17T05:31:13.468Z,93.12
2019-05-17T05:32:13.464Z,93.32
2019-05-17T05:33:13.471Z,92.91
2019-05-17T05:34:13.414Z,92.81
2019-05-17T05:35:13.410Z,92.50
2019-05-17T05:36:13.392Z,92.50
2019-05-17T05:37:13.493Z,92.60
2019-05-17T05:38:13.492Z,92.81
2019-05-17T05:39:13.364Z,92.25
2019-05-17T05:40:13.356Z,92.71
2019-05-17T05:41:13.338Z,92.81
2019-05-17T05:42:14.084Z,92.66
2019-05-17T05:43:13.335Z,92.81
2019-05-17T05:44:13.309Z,93.01
2019-05-17T05:45:13.293Z,92.71
2019-05-17T05:46:13.297Z,92.71
2019-05-17T05:47:13.273Z,92.46
2019-05-17T05:48:13.321Z,92.40
2019-05-17T05:49:13.266Z,92.60
2019-05-17T05:50:13.249Z,92.60
2019-05-17T05:51:13.811Z,92.81
2019-05-17T05:52:13.216Z,92.97
2019-05-17T05:53:13.387Z,92.46
2019-05-17T05:54:13.202Z,92.66
2019-05-17T05:55:13.201Z,93.07
2019-05-17T05:56:13.550Z,92.56
2019-05-17T05:57:13.189Z,92.25
2019-05-17T05:58:13.154Z,92.66
2019-05-17T05:59:13.166Z,92.77
2019-05-17T06:00:13.213Z,92.36
2019-05-17T06:01:13.146Z,92.32
2019-05-17T06:02:13.125Z,92.36
2019-05-17T06:03:13.098Z,92.01
2019-05-17T06:04:13.106Z,91.80
2019-05-17T06:05:17.156Z,92.15
2019-05-17T06:06:13.075Z,91.44
2019-05-17T06:07:13.084Z,91.95
2019-05-17T06:08:13.047Z,91.39
2019-05-17T06:09:13.076Z,91.50
2019-05-17T06:10:13.375Z,91.50
2019-05-17T06:11:13.034Z,91.50
2019-05-17T06:12:22.997Z,91.60
2019-05-17T06:13:13.992Z,91.39
2019-05-17T06:14:13.008Z,91.60
2019-05-17T06:15:13.010Z,91.15
2019-05-17T06:16:12.958Z,91.19
2019-05-17T06:17:12.950Z,90.84
2019-05-17T06:18:12.970Z,90.84
2019-05-17T06:19:12.941Z,90.33
2019-05-17T06:20:12.923Z,90.33
2019-05-17T06:21:12.912Z,90.23
2019-05-17T06:22:12.896Z,90.02
2019-05-17T06:23:12.892Z,89.41
2019-05-17T06:24:12.900Z,89.82
2019-05-17T06:25:15.374Z,89.20
2019-05-17T06:26:12.862Z,89.58
2019-05-17T06:27:12.838Z,87.94
2019-05-17T06:28:12.856Z,87.47
2019-05-17T06:29:12.848Z,87.98
2019-05-17T06:30:12.962Z,87.32
2019-05-17T06:31:15.047Z,87.53
2019-05-17T06:32:12.785Z,86.91
2019-05-17T06:33:26.776Z,87.02
2019-05-17T06:34:13.797Z,87.73
2019-05-17T06:35:13.066Z,87.94
2019-05-17T06:36:13.643Z,87.02
2019-05-17T06:37:14.900Z,86.91
2019-05-17T06:38:12.733Z,86.57
2019-05-17T06:39:12.795Z,86.26
2019-05-17T06:40:13.321Z,86.57
2019-05-17T06:41:12.812Z,86.41
2019-05-17T06:42:12.710Z,86.47
2019-05-17T06:43:13.338Z,86.67
2019-05-17T06:44:12.695Z,85.55
2019-05-17T06:45:12.796Z,85.35
2019-05-17T06:46:12.644Z,85.45
2019-05-17T06:47:12.667Z,85.21
2019-05-17T06:48:12.659Z,85.30
2019-05-17T06:49:12.840Z,85.41
2019-05-17T06:50:14.356Z,84.90
2019-05-17T06:51:12.583Z,85.21
2019-05-17T06:52:12.576Z,84.80
2019-05-17T06:53:12.708Z,85.10
2019-05-17T06:54:12.564Z,84.59
2019-05-17T06:55:12.941Z,84.28
2019-05-17T06:56:12.918Z,82.96
2019-05-17T06:57:12.930Z,82.86
2019-05-17T06:58:12.511Z,82.61
2019-05-17T06:59:12.563Z,82.51
2019-05-17T07:00:19.477Z,81.80
2019-05-17T07:01:13.479Z,81.90
2019-05-17T07:02:12.469Z,82.00
2019-05-17T07:03:12.463Z,81.90
2019-05-17T07:04:12.449Z,81.29
2019-05-17T07:05:12.456Z,81.29
2019-05-17T07:06:12.453Z,81.45
2019-05-17T07:07:12.407Z,81.45
2019-05-17T07:08:12.424Z,81.25
2019-05-17T07:09:12.420Z,81.56
2019-05-17T07:10:12.526Z,79.99
2019-05-17T07:11:12.388Z,79.41
2019-05-17T07:12:12.398Z,79.32
2019-05-17T07:13:12.348Z,79.17
2019-05-17T07:14:12.346Z,78.66
2019-05-17T07:15:12.359Z,78.26
2019-05-17T07:16:12.327Z,78.05
2019-05-17T07:17:12.332Z,78.97
2019-05-17T07:18:12.318Z,78.42
2019-05-17T07:19:12.292Z,78.16
2019-05-17T07:20:12.300Z,78.02
2019-05-17T07:21:12.283Z,78.63
2019-05-17T07:22:12.250Z,78.69
2019-05-17T07:23:12.245Z,78.08
2019-05-17T07:24:12.262Z,77.51
2019-05-17T07:25:12.249Z,78.08
2019-05-17T07:26:12.241Z,77.26
2019-05-17T07:27:12.226Z,77.47
2019-05-17T07:28:12.185Z,77.81
2019-05-17T07:29:12.179Z,78.08
2019-05-17T07:30:12.188Z,78.32
2019-05-17T07:31:12.159Z,79.20
2019-05-17T07:32:12.170Z,78.63
2019-05-17T07:33:12.132Z,79.10
2019-05-17T07:34:12.126Z,79.30
2019-05-17T07:35:12.140Z,79.20
2019-05-17T07:36:12.092Z,79.10
2019-05-17T07:37:12.094Z,79.30
2019-05-17T07:38:12.070Z,79.71
2019-05-17T07:39:12.075Z,78.80
2019-05-17T07:40:12.073Z,79.91
2019-05-17T07:41:12.038Z,78.69
2019-05-17T07:42:12.049Z,79.41
2019-05-17T07:43:14.682Z,79.16
2019-05-17T07:44:12.003Z,78.96
2019-05-17T07:45:12.023Z,79.37
2019-05-17T07:46:11.993Z,79.37
2019-05-17T07:47:11.970Z,78.15
2019-05-17T07:48:11.970Z,77.94
2019-05-17T07:49:11.947Z,78.59
2019-05-17T07:50:11.944Z,77.57
2019-05-17T07:51:12.056Z,77.64
2019-05-17T07:52:11.933Z,77.23
2019-05-17T07:53:11.905Z,76.92
2019-05-17T07:54:11.912Z,76.38
2019-05-17T07:55:11.890Z,76.38
2019-05-17T07:56:11.916Z,76.79
2019-05-17T07:57:11.900Z,75.37
2019-05-17T07:58:21.314Z,74.92
2019-05-17T07:59:11.849Z,74.52
2019-05-17T08:00:11.854Z,74.62
2019-05-17T08:01:11.869Z,74.52
2019-05-17T08:02:11.804Z,74.31
2019-05-17T08:03:13.219Z,73.30
2019-05-17T08:04:11.788Z,73.30
2019-05-17T08:05:11.788Z,72.99
2019-05-17T08:06:11.781Z,72.89
2019-05-17T08:07:11.768Z,73.19
2019-05-17T08:08:11.736Z,73.30
2019-05-17T08:09:13.734Z,72.85
2019-05-17T08:10:11.724Z,72.75
2019-05-17T08:11:11.735Z,72.34
2019-05-17T08:12:11.717Z,72.45
2019-05-17T08:13:25.657Z,72.96
2019-05-17T08:14:26.799Z,72.82
2019-05-17T08:15:12.682Z,72.72
2019-05-17T08:16:11.728Z,73.13
2019-05-17T08:17:11.654Z,71.70
2019-05-17T08:18:11.631Z,71.40
2019-05-17T08:19:11.629Z,72.21
2019-05-17T08:20:11.606Z,71.30
2019-05-17T08:21:11.718Z,71.60
2019-05-17T08:22:11.589Z,72.11
2019-05-17T08:23:11.593Z,72.82
2019-05-17T08:24:11.617Z,72.55
2019-05-17T08:25:11.561Z,73.02
2019-05-17T08:26:11.563Z,72.96
2019-05-17T08:27:11.538Z,72.25
2019-05-17T08:28:11.532Z,72.85
2019-05-17T08:29:11.576Z,72.65
2019-05-17T08:30:11.651Z,72.65
2019-05-17T08:31:11.505Z,72.72
2019-05-17T08:32:11.476Z,72.92
2019-05-17T08:33:11.478Z,72.55
2019-05-17T08:34:11.490Z,72.62
2019-05-17T08:35:11.649Z,72.52
2019-05-17T08:36:11.453Z,72.62
2019-05-17T08:37:11.437Z,72.82
2019-05-17T08:38:11.417Z,72.82
2019-05-17T08:39:11.416Z,72.21
2019-05-17T08:40:14.607Z,72.62
2019-05-17T08:41:11.426Z,72.31
2019-05-17T08:42:11.368Z,72.11
2019-05-17T08:43:11.368Z,72.41
2019-05-17T08:44:11.358Z,71.88
2019-05-17T08:45:11.349Z,72.08
2019-05-17T08:46:11.363Z,72.48
2019-05-17T08:47:11.311Z,71.57
2019-05-17T08:48:11.330Z,72.08
2019-05-17T08:49:11.295Z,71.64
2019-05-17T08:50:11.727Z,72.04
2019-05-17T08:51:11.322Z,71.94
2019-05-17T08:52:11.260Z,70.62
2019-05-17T08:53:11.245Z,70.72
2019-05-17T08:54:11.235Z,70.59
2019-05-17T08:55:11.227Z,71.23
2019-05-17T08:56:11.339Z,70.28
2019-05-17T08:57:11.231Z,70.39
2019-05-17T08:58:11.205Z,70.18
2019-05-17T08:59:11.196Z,70.56
2019-05-17T09:00:11.204Z,69.95
2019-05-17T09:01:11.418Z,68.90
2019-05-17T09:02:11.162Z,68.80
2019-05-17T09:03:11.146Z,68.80
2019-05-17T09:04:11.122Z,68.29
2019-05-17T09:05:11.117Z,68.87
2019-05-17T09:06:12.282Z,68.19
2019-05-17T09:07:11.128Z,68.36
2019-05-17T09:08:20.685Z,67.14
2019-05-17T09:09:11.066Z,67.45
2019-05-17T09:10:11.062Z,66.74
2019-05-17T09:11:11.045Z,66.94
2019-05-17T09:12:11.215Z,66.94
2019-05-17T09:13:14.596Z,66.84
2019-05-17T09:14:11.017Z,66.54
2019-05-17T09:15:11.014Z,67.45
2019-05-17T09:16:11.014Z,66.74
2019-05-17T09:17:11.071Z,66.94
2019-05-17T09:18:10.972Z,66.84
2019-05-17T09:19:10.976Z,66.94
2019-05-17T09:20:11.201Z,67.14
2019-05-17T09:21:10.937Z,66.84
2019-05-17T09:22:10.943Z,66.94
2019-05-17T09:23:10.925Z,66.94
2019-05-17T09:24:10.919Z,66.91
2019-05-17T09:25:15.754Z,66.81
2019-05-17T09:26:11.886Z,66.81
2019-05-17T09:27:10.895Z,66.71
2019-05-17T09:28:10.861Z,66.71
2019-05-17T09:29:10.950Z,66.50
2019-05-17T09:30:10.883Z,66.47
2019-05-17T09:31:10.836Z,65.97
2019-05-17T09:32:10.859Z,65.67
2019-05-17T09:33:11.510Z,65.36
2019-05-17T09:34:20.284Z,66.07
2019-05-17T09:35:10.789Z,66.04
2019-05-17T09:36:10.795Z,65.84
2019-05-17T09:37:10.794Z,65.00
2019-05-17T09:38:10.765Z,64.70
2019-05-17T09:39:10.741Z,63.68
2019-05-17T09:40:10.739Z,64.26
2019-05-17T09:41:10.729Z,64.16
2019-05-17T09:42:10.753Z,63.85
2019-05-17T09:43:10.705Z,63.55
2019-05-17T09:44:15.918Z,63.52
2019-05-17T09:45:11.684Z,63.52
2019-05-17T09:46:10.885Z,63.82
2019-05-17T09:47:10.705Z,62.99
2019-05-17T09:48:10.772Z,62.99
2019-05-17T09:49:10.692Z,62.25
2019-05-17T09:50:10.636Z,62.35
2019-05-17T09:51:10.719Z,62.43
2019-05-17T09:52:10.670Z,62.63
2019-05-17T09:53:11.027Z,61.72
2019-05-17T09:54:10.593Z,60.51
2019-05-17T09:55:10.591Z,60.71
2019-05-17T09:56:10.554Z,60.48
2019-05-17T09:57:10.547Z,60.48
2019-05-17T09:58:10.579Z,60.58
2019-05-17T09:59:10.545Z,60.25
2019-05-17T10:00:10.520Z,60.15
2019-05-17T10:01:10.505Z,60.15
2019-05-17T10:02:10.494Z,59.67
2019-05-17T10:03:10.509Z,58.76
2019-05-17T10:04:13.506Z,58.76
2019-05-17T10:05:10.928Z,59.47
2019-05-17T10:06:10.451Z,59.55
2019-05-17T10:07:10.440Z,58.54
2019-05-17T10:08:11.002Z,59.07
2019-05-17T10:09:10.421Z,58.74
2019-05-17T10:10:10.882Z,58.74
2019-05-17T10:11:12.120Z,58.44
2019-05-17T10:12:10.396Z,58.64
2019-05-17T10:13:10.422Z,58.74
2019-05-17T10:14:24.553Z,58.01
2019-05-17T10:15:11.350Z,58.23
2019-05-17T10:16:10.347Z,58.23
2019-05-17T10:17:10.333Z,58.64
2019-05-17T10:18:11.115Z,58.44
2019-05-17T10:19:10.318Z,58.54
2019-05-17T10:20:10.913Z,58.34
2019-05-17T10:21:10.553Z,57.70
2019-05-17T10:22:10.528Z,57.60
2019-05-17T10:23:10.804Z,57.90
2019-05-17T10:24:10.252Z,57.98
2019-05-17T10:25:10.248Z,57.57
2019-05-17T10:26:10.391Z,57.45
2019-05-17T10:27:10.947Z,57.95
2019-05-17T10:28:10.337Z,57.45
2019-05-17T10:29:10.212Z,57.24
2019-05-17T10:30:10.610Z,56.84
2019-05-17T10:31:11.225Z,56.04
2019-05-17T10:32:10.595Z,55.74
2019-05-17T10:33:10.254Z,55.91
2019-05-17T10:34:10.148Z,56.31
2019-05-17T10:35:10.139Z,55.71
2019-05-17T10:36:10.124Z,55.08
2019-05-17T10:37:10.539Z,55.48
2019-05-17T10:38:10.509Z,55.18
2019-05-17T10:39:10.122Z,54.48
2019-05-17T10:40:10.591Z,55.08
2019-05-17T10:41:10.316Z,54.17
2019-05-17T10:42:10.160Z,55.11
2019-05-17T10:43:10.419Z,54.91
2019-05-17T10:44:10.037Z,54.60
2019-05-17T10:45:11.036Z,55.31
2019-05-17T10:46:10.583Z,55.79
2019-05-17T10:47:10.182Z,55.38
2019-05-17T10:48:10.494Z,55.38
2019-05-17T10:49:10.801Z,55.79
2019-05-17T10:50:10.834Z,54.45
2019-05-17T10:51:12.824Z,54.75
2019-05-17T10:52:09.956Z,54.55
2019-05-17T10:53:10.399Z,55.38
2019-05-17T10:54:09.931Z,55.68
2019-05-17T10:55:10.466Z,54.98
2019-05-17T10:56:10.121Z,54.68
2019-05-17T10:57:10.487Z,54.05
2019-05-17T10:58:10.310Z,53.57
2019-05-17T10:59:10.042Z,53.97
2019-05-17T11:00:10.325Z,54.35
2019-05-17T11:01:10.389Z,53.75
2019-05-17T11:02:10.106Z,53.95
2019-05-17T11:03:10.144Z,53.92
2019-05-17T11:04:10.453Z,53.45
2019-05-17T11:05:10.520Z,53.05
2019-05-17T11:06:10.883Z,53.34
2019-05-17T11:07:10.512Z,53.67
2019-05-17T11:08:10.805Z,54.38
2019-05-17T11:09:10.253Z,54.40
2019-05-17T11:10:11.644Z,53.40
2019-05-17T11:11:10.225Z,54.00
2019-05-17T11:12:09.744Z,54.98
2019-05-17T11:13:09.739Z,53.47
2019-05-17T11:14:09.746Z,53.97
2019-05-17T11:15:11.842Z,53.65
2019-05-17T11:16:09.689Z,53.34
2019-05-17T11:17:09.673Z,53.55
2019-05-17T11:18:09.669Z,53.32
2019-05-17T11:19:09.687Z,53.12
2019-05-17T11:20:09.639Z,53.59
2019-05-17T11:21:09.637Z,52.89
2019-05-17T11:22:09.628Z,52.80
2019-05-17T11:23:09.646Z,52.39
2019-05-17T11:24:09.647Z,52.69
2019-05-17T11:25:09.595Z,53.09
2019-05-17T11:26:09.610Z,52.69
2019-05-17T11:27:09.577Z,52.80
2019-05-17T11:28:09.585Z,52.89
2019-05-17T11:29:09.558Z,52.80
2019-05-17T11:30:09.562Z,52.89
2019-05-17T11:31:09.522Z,53.30
2019-05-17T11:32:09.543Z,52.89
2019-05-17T11:33:09.986Z,53.50
2019-05-17T11:34:09.517Z,53.00
2019-05-17T11:35:09.515Z,52.89
2019-05-17T11:36:09.471Z,53.62
2019-05-17T11:37:09.458Z,53.82
2019-05-17T11:38:09.463Z,52.82
2019-05-17T11:39:09.459Z,54.05
2019-05-17T11:40:09.430Z,53.95
2019-05-17T11:41:20.763Z,53.42
2019-05-17T11:42:10.411Z,53.65
2019-05-17T11:43:09.444Z,53.55
2019-05-17T11:44:09.422Z,53.57
2019-05-17T11:45:09.389Z,54.05
2019-05-17T11:46:09.366Z,53.55
2019-05-17T11:47:09.366Z,53.65
2019-05-17T11:48:09.350Z,53.65
2019-05-17T11:49:09.381Z,53.65
2019-05-17T11:50:09.318Z,53.05
2019-05-17T11:51:09.314Z,53.62
2019-05-17T11:52:09.306Z,53.12
2019-05-17T11:53:09.300Z,53.32
2019-05-17T11:54:09.315Z,53.14
2019-05-17T11:55:09.283Z,53.02
2019-05-17T11:56:09.298Z,52.92
2019-05-17T11:57:12.199Z,52.51
2019-05-17T11:58:09.260Z,52.12
2019-05-17T11:59:09.245Z,53.12
2019-05-17T12:00:09.210Z,52.12
2019-05-17T12:01:09.214Z,52.42
2019-05-17T12:02:09.198Z,52.59
2019-05-17T12:03:09.593Z,52.01
2019-05-17T12:04:09.255Z,52.12
2019-05-17T12:05:09.160Z,52.51
2019-05-17T12:06:09.148Z,52.84
2019-05-17T12:08:30.144Z,53.02
2019-05-17T12:09:37.358Z,52.44
2019-05-17T12:10:31.201Z,53.05
2019-05-17T12:11:30.113Z,53.34
2019-05-17T12:12:30.097Z,53.05
2019-05-17T12:13:30.089Z,52.94
2019-05-17T12:14:30.097Z,54.02
2019-05-17T12:15:43.820Z,53.12
2019-05-17T12:16:31.055Z,53.02
2019-05-17T12:17:30.056Z,53.22
2019-05-17T12:18:30.034Z,52.42
2019-05-17T12:19:30.047Z,51.89
2019-05-17T12:20:30.014Z,51.99
2019-05-17T12:21:30.008Z,52.07
2019-05-17T12:22:30.020Z,50.74
2019-05-17T12:23:30.003Z,51.21
2019-05-17T12:24:29.982Z,50.96
2019-05-17T12:25:29.958Z,48.82
2019-05-17T12:26:29.947Z,47.57
2019-05-17T12:27:29.937Z,45.81
2019-05-17T12:28:29.943Z,44.99
2019-05-17T12:29:29.947Z,45.09
2019-05-17T12:30:29.905Z,44.42
2019-05-17T12:31:29.903Z,43.80
2019-05-17T12:32:29.894Z,43.30
2019-05-17T12:33:29.873Z,43.11
2019-05-17T12:34:29.880Z,43.11
2019-05-17T12:35:29.858Z,43.30
2019-05-17T12:36:29.840Z,43.52
2019-05-17T12:37:29.831Z,43.55
2019-05-17T12:38:29.836Z,43.75
2019-05-17T12:39:29.834Z,43.55
2019-05-17T12:40:29.811Z,42.83
2019-05-17T12:41:29.799Z,43.01
2019-05-17T12:42:29.783Z,43.21
2019-05-17T12:43:29.772Z,42.91
2019-05-17T12:44:29.778Z,43.19
2019-05-17T12:45:29.756Z,42.57
2019-05-17T12:46:29.750Z,42.37
2019-05-17T12:47:29.748Z,41.66
2019-05-17T12:48:29.729Z,40.66
2019-05-17T12:49:29.727Z,41.53
2019-05-17T12:50:29.696Z,42.03
2019-05-17T12:51:32.807Z,41.04
2019-05-17T12:52:29.695Z,41.14
2019-05-17T12:53:29.671Z,41.46
2019-05-17T12:54:29.797Z,41.66
2019-05-17T12:55:29.653Z,42.37